Terminal Aerodrome Forecast
Issued by NWS

Home | Current Version | Previous Version | Text Only | Print | Product List | Glossary On
Versions: 1 2 3 4 5 6 7 8 9 10 11 12 13 14 15 16 17 18 19 20 21 22 23
000
FTUS43 KAPX 021732
TAFMBL
TAF
KMBL 021732Z 0218/0318 33011KT P6SM SCT035
     FM030000 VRB03KT P6SM SKC
     FM030700 16004KT P6SM OVC090
     FM031100 14011KT 6SM -SN OVC035
     FM031500 14013KT 1SM -SN OVC009
      AMD LTD TO CLD VIS AND WIND=

USA.gov is the U.S. government's official web portal to all federal, state and local government web resources and services.